Time;durP1;ratioP1;P1;durP2;ratioP2;P2;SDS_P1;SDS_P2;PMS_P1;PMS_P2;Temp;Humidity;BMP_temperature;BMP_pressure;BME280_temperature;BME280_humidity;BME280_pressure;Samples;Min_cycle;Max_cycle;Signal;HPM_P1;HPM_P2
2022/05/18 16:35:53;;;;;;;4.93;2.90;;;;;;;;;;5505000;22;20447;-74
2022/05/18 16:38:21;;;;;;;4.30;2.87;;;;;;;;;;5075294;28;20492;-77
2022/05/18 16:40:48;;;;;;;3.80;3.00;;;;;;;;;;5081364;28;20783;-76
2022/05/18 16:43:15;;;;;;;4.40;2.47;;;;;;;;;;5084524;28;20423;-78
2022/05/18 16:45:42;;;;;;;3.67;2.77;;;;;;;;;;5088419;28;20843;-76
2022/05/18 16:48:09;;;;;;;3.83;2.90;;;;;;;;;;5089864;28;20814;-82
2022/05/18 16:50:42;;;;;;;4.00;2.67;;;;;;;;;;5090742;28;20435;-77
2022/05/18 16:53:15;;;;;;;3.80;3.03;;;;;;;;;;5091676;28;20933;-79
2022/05/18 16:55:47;;;;;;;3.40;2.50;;;;;;;;;;5091891;28;20427;-79
2022/05/18 16:58:19;;;;;;;2.87;2.57;;;;;;;;;;5095356;28;20439;-75
2022/05/18 17:00:52;;;;;;;3.40;2.57;;;;;;;;;;5094735;28;20449;-77
2022/05/18 17:03:24;;;;;;;4.33;2.73;;;;;;;;;;5089533;28;20427;-78
2022/05/18 17:06:00;;;;;;;2.80;2.30;;;;;;;;;;5089121;28;20820;-76
2022/05/18 17:11:15;;;;;;;3.87;2.77;;;;;;;;;;5072518;28;20436;-80
2022/05/18 17:13:48;;;;;;;3.10;2.67;;;;;;;;;;5072466;28;20447;-80
2022/05/18 17:16:22;;;;;;;3.40;2.40;;;;;;;;;;5071596;28;21099;-75
2022/05/18 17:18:55;;;;;;;3.80;2.63;;;;;;;;;;5079468;28;20455;-80
2022/05/18 17:21:28;;;;;;;3.07;2.33;;;;;;;;;;5093298;28;20871;-77
2022/05/18 17:24:02;;;;;;;3.53;2.53;;;;;;;;;;5093153;28;20797;-76
2022/05/18 17:26:37;;;;;;;5.33;3.70;;;;;;;;;;5087976;28;20483;-77
2022/05/18 17:29:10;;;;;;;5.93;3.30;;;;;;;;;;5088060;28;20453;-76
2022/05/18 17:31:42;;;;;;;3.50;3.03;;;;;;;;;;5091528;28;20822;-82
2022/05/18 17:34:17;;;;;;;3.80;3.23;;;;;;;;;;5090524;28;20446;-80
2022/05/18 17:36:49;;;;;;;4.30;2.57;;;;;;;;;;5091534;28;20473;-75
2022/05/18 17:39:22;;;;;;;3.60;3.03;;;;;;;;;;5090142;28;20530;-78
2022/05/18 17:41:54;;;;;;;4.67;3.30;;;;;;;;;;5088369;28;20467;-78
2022/05/18 17:44:26;;;;;;;3.53;3.23;;;;;;;;;;5085174;28;20431;-77
2022/05/18 17:46:59;;;;;;;7.23;4.00;;;;;;;;;;5084129;28;20967;-76
2022/05/18 17:49:33;;;;;;;3.70;2.90;;;;;;;;;;5087085;28;20451;-76
2022/05/18 17:52:08;;;;;;;4.10;3.33;;;;;;;;;;5087629;28;20449;-80
2022/05/18 17:54:42;;;;;;;3.50;3.17;;;;;;;;;;5086655;28;20434;-78
2022/05/18 17:57:14;;;;;;;4.17;2.93;;;;;;;;;;5088422;28;20471;-76
2022/05/18 17:59:46;;;;;;;3.97;2.90;;;;;;;;;;5087540;28;20451;-75
2022/05/18 18:02:20;;;;;;;4.70;2.53;;;;;;;;;;5089831;28;20462;-76
2022/05/18 18:04:52;;;;;;;3.33;2.90;;;;;;;;;;5089218;28;20438;-78
2022/05/18 18:07:26;;;;;;;4.57;2.90;;;;;;;;;;5084067;28;20447;-79
2022/05/18 18:09:59;;;;;;;4.37;3.70;;;;;;;;;;5084101;28;20424;-76
2022/05/18 18:12:32;;;;;;;5.50;2.87;;;;;;;;;;5087302;28;20435;-79
2022/05/18 18:15:04;;;;;;;4.30;3.10;;;;;;;;;;5087223;28;20466;-80
2022/05/18 18:17:38;;;;;;;3.37;2.97;;;;;;;;;;5087646;28;20987;-78
2022/05/18 18:20:11;;;;;;;8.03;3.70;;;;;;;;;;5088088;28;20518;-79
2022/05/18 18:22:44;;;;;;;4.43;3.10;;;;;;;;;;5087666;28;20451;-77
2022/05/18 18:25:17;;;;;;;6.07;3.40;;;;;;;;;;5089413;28;20487;-76
2022/05/18 18:27:49;;;;;;;5.27;3.23;;;;;;;;;;5088749;28;20806;-77
2022/05/18 18:30:27;;;;;;;6.27;4.13;;;;;;;;;;5083418;28;20825;-76
2022/05/18 18:32:59;;;;;;;4.53;3.30;;;;;;;;;;5083043;28;20424;-76
2022/05/18 18:35:32;;;;;;;5.50;3.90;;;;;;;;;;5086899;28;20697;-74
2022/05/18 18:38:04;;;;;;;4.50;3.40;;;;;;;;;;5086899;28;20459;-75
2022/05/18 18:40:41;;;;;;;4.33;3.20;;;;;;;;;;5086965;28;20450;-73
2022/05/18 18:43:13;;;;;;;3.70;3.40;;;;;;;;;;5087409;28;20442;-76
2022/05/18 18:48:26;;;;;;;5.20;3.40;;;;;;;;;;5088974;28;20522;-75
2022/05/18 18:56:22;;;;;;;5.40;3.70;;;;;;;;;;5083176;28;20447;-75
2022/05/18 18:58:54;;;;;;;5.37;3.20;;;;;;;;;;5086883;28;20427;-79
2022/05/18 19:01:30;;;;;;;6.33;3.87;;;;;;;;;;5086729;28;20431;-75
2022/05/18 19:04:02;;;;;;;4.43;4.00;;;;;;;;;;5086469;28;20522;-76
2022/05/18 19:06:34;;;;;;;3.93;3.40;;;;;;;;;;5086271;28;20843;-76
2022/05/18 19:09:06;;;;;;;4.30;3.10;;;;;;;;;;5087500;28;20455;-76
2022/05/18 19:11:43;;;;;;;3.60;3.30;;;;;;;;;;5088398;28;20435;-75
2022/05/18 19:14:15;;;;;;;7.97;3.43;;;;;;;;;;5084866;28;20446;-76
2022/05/18 19:16:49;;;;;;;3.80;3.40;;;;;;;;;;5081142;28;20471;-77
2022/05/18 19:19:21;;;;;;;7.40;3.73;;;;;;;;;;5084323;28;20443;-74
2022/05/18 19:21:54;;;;;;;5.93;3.37;;;;;;;;;;5085173;28;20443;-77
2022/05/18 19:24:27;;;;;;;8.30;3.13;;;;;;;;;;5086223;28;20459;-76
2022/05/18 19:27:01;;;;;;;4.03;3.37;;;;;;;;;;5084853;28;20495;-79
2022/05/18 19:29:33;;;;;;;5.33;3.43;;;;;;;;;;5086576;28;21052;-77
2022/05/18 19:32:05;;;;;;;5.57;3.70;;;;;;;;;;5087332;28;20451;-76
2022/05/18 19:34:37;;;;;;;4.30;3.27;;;;;;;;;;5087960;28;20455;-78
2022/05/18 19:37:09;;;;;;;6.50;3.57;;;;;;;;;;5084964;28;20551;-76
2022/05/18 19:39:41;;;;;;;4.30;2.90;;;;;;;;;;5081718;28;20928;-78
2022/05/18 19:42:16;;;;;;;5.40;3.93;;;;;;;;;;5084198;28;20451;-79
2022/05/18 19:44:48;;;;;;;4.50;2.90;;;;;;;;;;5086025;28;20534;-75
2022/05/18 19:47:21;;;;;;;4.40;3.37;;;;;;;;;;5084673;28;20897;-76
2022/05/18 19:49:53;;;;;;;3.77;2.87;;;;;;;;;;5084945;28;20447;-76
2022/05/18 19:52:25;;;;;;;3.20;2.90;;;;;;;;;;5085688;28;20436;-77
2022/05/18 19:54:57;;;;;;;3.50;3.20;;;;;;;;;;5086768;28;20459;-77
2022/05/18 19:57:31;;;;;;;5.17;3.63;;;;;;;;;;5087450;28;20836;-78
2022/05/18 20:00:04;;;;;;;3.67;3.13;;;;;;;;;;5085420;28;20447;-77
2022/05/18 20:02:36;;;;;;;3.57;3.27;;;;;;;;;;5081898;28;20459;-77
2022/05/18 20:05:08;;;;;;;6.33;3.47;;;;;;;;;;5084033;28;20451;-75
2022/05/18 20:07:41;;;;;;;4.10;3.70;;;;;;;;;;5085648;28;20470;-76
2022/05/18 20:10:13;;;;;;;4.17;3.40;;;;;;;;;;5086098;28;20802;-76
2022/05/18 20:12:47;;;;;;;5.00;3.63;;;;;;;;;;5086364;28;20439;-77
2022/05/18 20:15:22;;;;;;;3.40;3.10;;;;;;;;;;5085358;28;20467;-75
2022/05/18 20:17:55;;;;;;;3.87;3.10;;;;;;;;;;5088880;28;20462;-77
2022/05/18 20:20:29;;;;;;;4.73;3.87;;;;;;;;;;5092724;28;20442;-78
2022/05/18 20:23:01;;;;;;;4.10;3.10;;;;;;;;;;5090806;28;20463;-76
2022/05/18 20:25:34;;;;;;;3.53;3.23;;;;;;;;;;5089612;28;20438;-76
2022/05/18 20:28:12;;;;;;;3.57;3.20;;;;;;;;;;5089802;28;20786;-78
2022/05/18 20:30:48;;;;;;;3.93;3.47;;;;;;;;;;5091798;28;20435;-75
2022/05/18 20:33:20;;;;;;;4.27;3.47;;;;;;;;;;5093267;28;20434;-75
2022/05/18 20:35:53;;;;;;;3.63;3.33;;;;;;;;;;5093730;28;20462;-79
2022/05/18 20:38:25;;;;;;;4.13;3.10;;;;;;;;;;5092131;28;20463;-78
2022/05/18 20:40:58;;;;;;;5.43;3.77;;;;;;;;;;5095363;28;20443;-77
2022/05/18 20:43:27;;;;;;;4.13;3.47;;;;;;;;;;5095079;28;20443;-77
2022/05/18 20:45:54;;;;;;;3.40;3.10;;;;;;;;;;5090989;28;20518;-77
2022/05/18 20:48:24;;;;;;;5.30;2.93;;;;;;;;;;5089232;28;20788;-77
2022/05/18 20:50:51;;;;;;;3.40;3.03;;;;;;;;;;5091710;28;20438;-80
2022/05/18 20:53:18;;;;;;;6.00;3.40;;;;;;;;;;5092623;28;20439;-75
2022/05/18 20:55:46;;;;;;;3.37;3.07;;;;;;;;;;5092932;28;20439;-77
2022/05/18 20:58:13;;;;;;;3.47;3.17;;;;;;;;;;5093204;28;20443;-77
2022/05/18 21:00:42;;;;;;;4.07;3.67;;;;;;;;;;5092524;28;20458;-77
2022/05/18 21:03:09;;;;;;;3.80;3.47;;;;;;;;;;5094116;28;20495;-78
2022/05/18 21:05:36;;;;;;;4.63;3.87;;;;;;;;;;5094699;28;20439;-77
2022/05/18 21:08:03;;;;;;;4.37;3.40;;;;;;;;;;5091062;28;20439;-77
2022/05/18 21:10:39;;;;;;;3.90;3.60;;;;;;;;;;5088993;28;20466;-77
2022/05/18 21:13:08;;;;;;;3.80;3.40;;;;;;;;;;5091084;28;21100;-78
2022/05/18 21:15:36;;;;;;;3.87;3.53;;;;;;;;;;5091885;28;20431;-77
2022/05/18 21:18:05;;;;;;;3.77;3.43;;;;;;;;;;5092622;28;20447;-76
2022/05/18 21:20:35;;;;;;;5.50;3.70;;;;;;;;;;5092939;28;20435;-76
2022/05/18 21:23:02;;;;;;;3.93;3.57;;;;;;;;;;5092135;28;20438;-75
2022/05/18 21:25:30;;;;;;;3.70;3.37;;;;;;;;;;5093646;28;20533;-76
2022/05/18 21:27:57;;;;;;;5.57;4.40;;;;;;;;;;5093792;28;20516;-77
2022/05/18 21:30:27;;;;;;;4.03;3.63;;;;;;;;;;5090778;28;20443;-78
2022/05/18 21:32:55;;;;;;;4.63;3.83;;;;;;;;;;5087183;28;20435;-77
2022/05/18 21:35:24;;;;;;;4.17;3.77;;;;;;;;;;5089957;28;20646;-78
2022/05/18 21:37:52;;;;;;;4.97;3.80;;;;;;;;;;5091782;28;20477;-76
2022/05/18 21:40:19;;;;;;;4.10;3.60;;;;;;;;;;5091720;28;20435;-76
2022/05/18 21:42:46;;;;;;;3.83;3.53;;;;;;;;;;5092034;28;20455;-76
2022/05/18 21:45:17;;;;;;;4.10;3.53;;;;;;;;;;5092140;28;20530;-77
2022/05/18 21:47:47;;;;;;;4.40;3.67;;;;;;;;;;5093082;28;20486;-76
2022/05/18 21:50:14;;;;;;;3.77;3.37;;;;;;;;;;5093806;28;20436;-77
2022/05/18 21:52:43;;;;;;;4.90;3.43;;;;;;;;;;5090481;28;20435;-77
2022/05/18 21:55:11;;;;;;;4.40;3.43;;;;;;;;;;5086740;28;20438;-77
2022/05/18 21:57:51;;;;;;;4.70;3.57;;;;;;;;;;5089998;28;20463;-77
2022/05/18 22:00:20;;;;;;;4.60;3.57;;;;;;;;;;5091272;28;20890;-79
2022/05/18 22:02:47;;;;;;;3.97;3.67;;;;;;;;;;5090456;28;20428;-78
2022/05/18 22:05:15;;;;;;;4.03;3.20;;;;;;;;;;5091580;28;20443;-77
2022/05/18 22:07:43;;;;;;;4.07;3.67;;;;;;;;;;5091188;28;20981;-76
2022/05/18 22:10:10;;;;;;;4.07;3.67;;;;;;;;;;5092417;28;20461;-78
2022/05/18 22:12:37;;;;;;;4.13;3.73;;;;;;;;;;5093328;28;20447;-74
2022/05/18 22:15:05;;;;;;;3.57;3.27;;;;;;;;;;5089573;28;20428;-76
2022/05/18 22:17:32;;;;;;;4.40;4.00;;;;;;;;;;5087251;28;21045;-78
2022/05/18 22:19:59;;;;;;;4.47;4.00;;;;;;;;;;5089439;28;20454;-77
2022/05/18 22:22:27;;;;;;;4.20;3.80;;;;;;;;;;5090949;28;20557;-77
2022/05/18 22:24:55;;;;;;;6.83;4.10;;;;;;;;;;5091149;28;20434;-75
2022/05/18 22:27:22;;;;;;;4.33;3.90;;;;;;;;;;5091142;28;20487;-77
2022/05/18 22:30:00;;;;;;;4.33;3.93;;;;;;;;;;5089803;28;20432;-77
2022/05/18 22:32:30;;;;;;;7.10;4.83;;;;;;;;;;5092380;28;20466;-77
2022/05/18 22:34:58;;;;;;;6.47;4.10;;;;;;;;;;5093171;28;20441;-79
2022/05/18 22:37:25;;;;;;;5.57;4.00;;;;;;;;;;5088734;28;20463;-76
2022/05/18 22:39:52;;;;;;;3.63;3.33;;;;;;;;;;5086442;28;20436;-76
2022/05/18 22:42:21;;;;;;;7.27;3.50;;;;;;;;;;5089235;28;20436;-78
2022/05/18 22:44:49;;;;;;;4.73;3.87;;;;;;;;;;5089004;28;20431;-76
2022/05/18 22:47:19;;;;;;;5.07;3.77;;;;;;;;;;5090389;28;20975;-74
2022/05/18 22:49:46;;;;;;;4.20;3.80;;;;;;;;;;5090026;28;20777;-76
2022/05/18 22:52:14;;;;;;;4.37;3.87;;;;;;;;;;5090525;28;20443;-77
2022/05/18 22:54:41;;;;;;;4.60;3.60;;;;;;;;;;5091791;28;20487;-75
2022/05/18 22:57:08;;;;;;;4.40;3.60;;;;;;;;;;5092992;28;20461;-75
2022/05/18 22:59:37;;;;;;;4.60;3.50;;;;;;;;;;5088967;28;20446;-76
2022/05/18 23:02:05;;;;;;;3.97;3.53;;;;;;;;;;5087033;28;20443;-76
2022/05/18 23:04:32;;;;;;;4.53;3.60;;;;;;;;;;5088556;28;20542;-76
2022/05/18 23:06:59;;;;;;;4.20;3.80;;;;;;;;;;5089840;28;20939;-76
2022/05/18 23:09:26;;;;;;;4.10;3.70;;;;;;;;;;5090279;28;20526;-77
2022/05/18 23:11:54;;;;;;;4.03;3.70;;;;;;;;;;5090322;28;20796;-77
2022/05/18 23:14:21;;;;;;;4.03;3.63;;;;;;;;;;5090286;28;20439;-76
2022/05/18 23:16:49;;;;;;;4.30;3.90;;;;;;;;;;5091407;28;20471;-77
2022/05/18 23:19:17;;;;;;;4.73;3.67;;;;;;;;;;5092015;28;20432;-74
2022/05/18 23:21:45;;;;;;;3.77;3.47;;;;;;;;;;5088921;28;20431;-77
2022/05/18 23:24:12;;;;;;;5.50;3.67;;;;;;;;;;5086458;28;20428;-76
2022/05/18 23:26:39;;;;;;;5.20;3.83;;;;;;;;;;5087122;28;20587;-75
2022/05/18 23:29:08;;;;;;;6.03;4.20;;;;;;;;;;5089134;28;20435;-77
2022/05/18 23:31:38;;;;;;;4.60;4.20;;;;;;;;;;5089605;28;20534;-77
2022/05/18 23:34:06;;;;;;;4.27;3.90;;;;;;;;;;5089343;28;20785;-76
2022/05/18 23:36:33;;;;;;;4.53;4.13;;;;;;;;;;5083951;28;20464;-76
2022/05/18 23:39:00;;;;;;;6.30;3.80;;;;;;;;;;5070057;28;20456;-76
2022/05/18 23:41:28;;;;;;;7.63;4.07;;;;;;;;;;5066271;28;20439;-76
2022/05/18 23:43:55;;;;;;;5.20;4.07;;;;;;;;;;5066547;28;20441;-77
2022/05/18 23:46:25;;;;;;;4.20;3.77;;;;;;;;;;5068499;28;20464;-76
2022/05/18 23:48:53;;;;;;;5.13;4.57;;;;;;;;;;5068958;28;20482;-75
2022/05/18 23:54:04;;;;;;;7.00;3.83;;;;;;;;;;5039382;28;20425;-77
2022/05/18 23:56:35;;;;;;;6.00;4.03;;;;;;;;;;5052154;28;20474;-75
2022/05/18 23:59:03;;;;;;;4.73;4.10;;;;;;;;;;5071243;28;20440;-75
